createdAt,value
2019-01-19T00:00:33.679Z,101800.11
2019-01-19T00:03:49.072Z,101798.56
2019-01-19T00:07:16.164Z,101799.38
2019-01-19T00:10:39.959Z,101797.67
2019-01-19T00:14:12.398Z,101802.76
2019-01-19T00:17:51.144Z,101801.77
2019-01-19T00:21:32.754Z,101797.13
2019-01-19T00:24:58.457Z,101797.26
2019-01-19T00:28:25.206Z,101799.87
2019-01-19T00:31:44.100Z,101797.71
2019-01-19T00:35:18.445Z,101796.00
2019-01-19T00:39:31.084Z,101798.66
2019-01-19T00:43:05.630Z,101798.38
2019-01-19T00:46:37.116Z,101800.98
2019-01-19T00:49:53.005Z,101796.98
2019-01-19T00:53:10.626Z,101805.19
2019-01-19T00:56:43.439Z,101810.41
2019-01-19T00:59:53.108Z,101809.22
2019-01-19T01:03:11.699Z,101804.22
2019-01-19T01:06:55.507Z,101801.61
2019-01-19T01:10:32.493Z,101803.28
2019-01-19T01:13:58.778Z,101807.14
2019-01-19T01:17:19.079Z,101805.31
2019-01-19T01:20:44.723Z,101809.27
2019-01-19T01:24:13.365Z,101809.44
2019-01-19T01:27:54.597Z,101809.66
2019-01-19T01:31:26.130Z,101808.34
2019-01-19T01:35:09.975Z,101810.50
2019-01-19T01:39:18.305Z,101804.39
2019-01-19T01:42:43.940Z,101801.66
2019-01-19T01:46:17.243Z,101806.83
2019-01-19T01:49:39.466Z,101804.95
2019-01-19T01:53:08.577Z,101807.92
2019-01-19T01:56:15.121Z,101803.88
2019-01-19T02:00:14.288Z,101801.75
2019-01-19T02:04:07.560Z,101802.70
2019-01-19T02:07:48.683Z,101806.08
2019-01-19T02:11:15.352Z,101806.03
2019-01-19T02:14:47.341Z,101807.21
2019-01-19T02:18:15.007Z,101800.69
2019-01-19T02:22:04.068Z,101797.67
2019-01-19T02:26:04.691Z,101789.87
2019-01-19T02:29:53.075Z,101793.80
2019-01-19T02:33:26.412Z,101792.81
2019-01-19T02:36:50.346Z,101795.56
2019-01-19T02:40:25.785Z,101788.09
2019-01-19T02:43:53.646Z,101792.05
2019-01-19T02:47:24.899Z,101799.43
2019-01-19T02:50:43.803Z,101794.62
2019-01-19T02:54:13.603Z,101795.39
2019-01-19T02:57:56.606Z,101794.90
2019-01-19T03:01:44.391Z,101793.55
2019-01-19T03:05:26.448Z,101789.00
2019-01-19T03:09:29.982Z,101799.08
2019-01-19T03:13:02.781Z,101794.05
2019-01-19T03:16:52.800Z,101792.34
2019-01-19T03:21:05.468Z,101790.54
2019-01-19T03:25:04.978Z,101785.95
2019-01-19T03:28:41.791Z,101784.38
2019-01-19T03:32:35.847Z,101789.55
2019-01-19T03:36:04.333Z,101786.13
2019-01-19T03:39:32.435Z,101781.86
2019-01-19T03:43:13.586Z,101779.70
2019-01-19T03:46:44.138Z,101781.37
2019-01-19T03:50:10.299Z,101782.63
2019-01-19T03:53:54.510Z,101778.17
2019-01-19T03:57:40.067Z,101773.63
2019-01-19T04:01:01.545Z,101779.66
2019-01-19T04:04:33.669Z,101780.87
2019-01-19T04:07:51.307Z,101783.17
2019-01-19T04:11:19.915Z,101776.64
2019-01-19T04:14:39.961Z,101777.19
2019-01-19T04:18:12.408Z,101769.63
2019-01-19T04:21:43.079Z,101773.14
2019-01-19T04:25:25.336Z,101773.50
2019-01-19T04:28:29.526Z,101769.22
2019-01-19T04:31:33.635Z,101770.53
2019-01-19T04:34:37.667Z,101773.59
2019-01-19T04:37:41.623Z,101777.23
2019-01-19T04:40:45.615Z,101775.52
2019-01-19T04:43:49.470Z,101773.37
2019-01-19T04:46:53.405Z,101780.20
2019-01-19T04:49:57.428Z,101779.12
2019-01-19T04:53:03.582Z,101774.22
2019-01-19T04:56:07.630Z,101777.64
2019-01-19T04:59:11.538Z,101773.86
2019-01-19T05:02:15.483Z,101772.09
2019-01-19T05:05:19.444Z,101772.37
2019-01-19T05:08:23.362Z,101768.28
2019-01-19T05:11:27.221Z,101770.25
2019-01-19T05:14:31.084Z,101768.77
2019-01-19T05:17:34.924Z,101764.27
2019-01-19T05:20:38.877Z,101764.80
2019-01-19T05:23:42.890Z,101764.98
2019-01-19T05:26:46.743Z,101769.61
2019-01-19T05:29:50.601Z,101767.82
2019-01-19T05:32:54.736Z,101770.42
2019-01-19T05:35:58.662Z,101769.84
2019-01-19T05:39:02.762Z,101768.19
2019-01-19T05:42:06.789Z,101766.75
2019-01-19T05:45:12.984Z,101768.69
2019-01-19T05:48:16.864Z,101763.02
2019-01-19T05:51:20.875Z,101764.50
2019-01-19T05:54:24.724Z,101771.25
2019-01-19T05:57:28.585Z,101766.66
2019-01-19T06:00:34.852Z,101768.73
2019-01-19T06:03:41.643Z,101767.47
2019-01-19T06:06:46.887Z,101764.22
2019-01-19T06:09:51.423Z,101771.12
2019-01-19T06:12:55.456Z,101766.58
2019-01-19T06:16:01.111Z,101767.09
2019-01-19T06:19:08.137Z,101761.38
2019-01-19T06:22:12.430Z,101762.44
2019-01-19T06:25:16.480Z,101766.94
2019-01-19T06:28:20.423Z,101768.89
2019-01-19T06:31:24.269Z,101771.02
2019-01-19T06:34:28.585Z,101768.82
2019-01-19T06:37:32.519Z,101766.37
2019-01-19T06:40:36.523Z,101772.89
2019-01-19T06:43:40.489Z,101770.27
2019-01-19T06:46:44.486Z,101778.01
2019-01-19T06:49:48.387Z,101780.07
2019-01-19T06:52:52.428Z,101775.78
2019-01-19T06:55:56.333Z,101781.88
2019-01-19T06:59:00.597Z,101777.02
2019-01-19T07:02:04.557Z,101780.92
2019-01-19T07:05:08.689Z,101780.31
2019-01-19T07:08:14.675Z,101781.00
2019-01-19T07:11:22.282Z,101782.59
2019-01-19T07:14:26.161Z,101789.17
2019-01-19T07:17:30.201Z,101790.17
2019-01-19T07:20:34.090Z,101783.28
2019-01-19T07:23:38.029Z,101787.79
2019-01-19T07:26:41.999Z,101790.52
2019-01-19T07:29:46.443Z,101800.88
2019-01-19T07:32:50.428Z,101793.34
2019-01-19T07:35:54.446Z,101793.05
2019-01-19T07:38:58.308Z,101789.16
2019-01-19T07:42:02.275Z,101801.05
2019-01-19T07:45:07.051Z,101798.42
2019-01-19T07:48:11.495Z,101798.72
2019-01-19T07:51:15.506Z,101804.38
2019-01-19T07:54:19.510Z,101806.72
2019-01-19T07:57:23.431Z,101803.91
2019-01-19T08:00:29.583Z,101808.73
2019-01-19T08:03:33.908Z,101812.73
2019-01-19T08:06:37.843Z,101816.09
2019-01-19T08:09:41.776Z,101821.14
2019-01-19T08:12:45.834Z,101816.50
2019-01-19T08:15:49.762Z,101821.91
2019-01-19T08:18:53.634Z,101824.66
2019-01-19T08:21:57.577Z,101831.88
2019-01-19T08:25:01.559Z,101831.88
2019-01-19T08:28:07.064Z,101836.96
2019-01-19T08:31:11.098Z,101838.08
2019-01-19T08:34:15.028Z,101841.85
2019-01-19T08:37:24.424Z,101846.52
2019-01-19T08:40:27.101Z,101856.62
2019-01-19T08:43:43.034Z,101857.97
2019-01-19T08:46:46.915Z,101852.81
2019-01-19T08:49:50.842Z,101849.52
2019-01-19T08:52:57.181Z,101854.34
2019-01-19T08:56:01.115Z,101856.17
2019-01-19T08:59:05.322Z,101849.62
2019-01-19T09:02:09.545Z,101857.16
2019-01-19T09:05:13.630Z,101847.61
2019-01-19T09:08:17.666Z,101851.57
2019-01-19T09:11:21.631Z,101851.66
2019-01-19T09:14:25.603Z,101847.09
2019-01-19T09:17:29.557Z,101854.45
2019-01-19T09:20:33.768Z,101857.77
2019-01-19T09:23:54.214Z,101860.59
2019-01-19T09:26:58.174Z,101857.77
2019-01-19T09:30:02.111Z,101864.88
2019-01-19T09:33:06.762Z,101864.52
2019-01-19T09:36:10.769Z,101860.58
2019-01-19T09:39:14.715Z,101864.13
2019-01-19T09:42:18.658Z,101860.68
2019-01-19T09:45:22.692Z,101864.30
2019-01-19T09:48:26.677Z,101863.36
2019-01-19T09:51:30.677Z,101867.87
2019-01-19T09:54:34.635Z,101868.20
2019-01-19T09:57:38.708Z,101867.62
2019-01-19T10:00:45.771Z,101871.68
2019-01-19T10:03:50.587Z,101867.36
2019-01-19T10:06:54.621Z,101874.21
2019-01-19T10:09:58.591Z,101873.16
2019-01-19T10:13:02.599Z,101874.84
2019-01-19T10:16:06.737Z,101871.43
2019-01-19T10:19:10.704Z,101871.46
2019-01-19T10:22:14.628Z,101873.60
2019-01-19T10:25:18.869Z,101870.92
2019-01-19T10:28:25.917Z,101873.38
2019-01-19T10:31:29.853Z,101874.45
2019-01-19T10:34:33.900Z,101874.28
2019-01-19T10:37:37.765Z,101875.53
2019-01-19T10:40:41.781Z,101877.80
2019-01-19T10:43:45.662Z,101866.12
2019-01-19T10:46:49.899Z,101872.67
2019-01-19T10:49:53.888Z,101868.36
2019-01-19T10:52:57.886Z,101873.91
2019-01-19T10:56:01.844Z,101867.95
2019-01-19T10:59:07.782Z,101870.16
2019-01-19T11:02:11.687Z,101868.98
2019-01-19T11:05:15.795Z,101864.74
2019-01-19T11:08:19.729Z,101865.92
2019-01-19T11:11:23.822Z,101867.91
2019-01-19T11:14:27.700Z,101865.58
2019-01-19T11:17:31.562Z,101863.08
2019-01-19T11:20:35.577Z,101855.05
2019-01-19T11:23:40.045Z,101853.47
2019-01-19T11:26:44.100Z,101853.80
2019-01-19T11:29:47.970Z,101851.56
2019-01-19T11:32:52.068Z,101846.26
2019-01-19T11:35:56.016Z,101842.66
2019-01-19T11:38:59.976Z,101833.14
2019-01-19T11:42:06.264Z,101838.78
2019-01-19T11:45:12.960Z,101836.69
2019-01-19T11:48:16.841Z,101828.44
2019-01-19T11:51:22.724Z,101835.44
2019-01-19T11:54:26.638Z,101830.42
2019-01-19T11:57:30.695Z,101829.17
2019-01-19T12:00:36.838Z,101823.20
2019-01-19T12:03:40.830Z,101821.86
2019-01-19T12:06:44.844Z,101816.77
2019-01-19T12:09:49.015Z,101815.25
2019-01-19T12:12:53.093Z,101811.87
2019-01-19T12:15:57.137Z,101811.98
2019-01-19T12:19:01.012Z,101814.27
2019-01-19T12:22:05.079Z,101809.66
2019-01-19T12:25:11.298Z,101817.51
2019-01-19T12:28:15.261Z,101812.98
2019-01-19T12:31:19.278Z,101810.72
2019-01-19T12:34:23.312Z,101808.66
2019-01-19T12:37:27.328Z,101812.89
2019-01-19T12:40:31.557Z,101807.31
2019-01-19T12:43:35.597Z,101806.33
2019-01-19T12:46:39.633Z,101797.20
2019-01-19T12:49:43.641Z,101796.82
2019-01-19T12:52:47.697Z,101795.61
2019-01-19T12:55:51.655Z,101792.91
2019-01-19T12:58:55.579Z,101795.61
2019-01-19T13:01:59.524Z,101792.67
2019-01-19T13:05:03.771Z,101784.36
2019-01-19T13:08:09.619Z,101790.45
2019-01-19T13:11:44.832Z,101781.15
2019-01-19T13:14:57.000Z,101786.80
2019-01-19T13:18:38.976Z,101790.69
2019-01-19T13:22:30.270Z,101790.97
2019-01-19T13:26:27.537Z,101783.93
2019-01-19T13:29:51.173Z,101784.41
2019-01-19T13:33:03.723Z,101782.62
2019-01-19T13:37:03.381Z,101784.61
2019-01-19T13:40:33.205Z,101782.72
2019-01-19T13:44:08.376Z,101779.17
2019-01-19T13:47:50.087Z,101778.70
2019-01-19T13:51:21.875Z,101779.98
2019-01-19T13:55:04.953Z,101775.68
2019-01-19T13:58:21.378Z,101761.24
2019-01-19T14:02:11.403Z,101763.95
2019-01-19T14:05:50.488Z,101757.83
2019-01-19T14:09:37.926Z,101758.23
2019-01-19T14:13:18.185Z,101759.20
2019-01-19T14:16:50.342Z,101755.73
2019-01-19T14:20:25.444Z,101754.24
2019-01-19T14:24:22.828Z,101750.06
2019-01-19T14:28:12.660Z,101754.39
2019-01-19T14:31:40.863Z,101750.31
2019-01-19T14:35:06.004Z,101748.39
2019-01-19T14:38:56.690Z,101744.73
2019-01-19T14:42:33.494Z,101745.92
2019-01-19T14:46:01.302Z,101740.81
2019-01-19T14:49:34.186Z,101736.46
2019-01-19T14:53:04.042Z,101738.73
2019-01-19T14:56:49.399Z,101744.22
2019-01-19T15:00:48.504Z,101736.59
2019-01-19T15:04:45.677Z,101733.45
2019-01-19T15:08:14.638Z,101731.07
2019-01-19T15:12:05.242Z,101734.87
2019-01-19T15:15:50.550Z,101732.58
2019-01-19T15:19:47.881Z,101733.26
2019-01-19T15:23:15.958Z,101732.20
2019-01-19T15:27:16.088Z,101738.56
2019-01-19T15:30:52.032Z,101729.27
2019-01-19T15:34:39.987Z,101731.72
2019-01-19T15:38:10.575Z,101731.74
2019-01-19T15:41:51.571Z,101740.70
2019-01-19T15:45:51.732Z,101741.81
2019-01-19T15:49:23.345Z,101743.29
2019-01-19T15:52:45.152Z,101750.62
2019-01-19T15:56:37.509Z,101743.56
2019-01-19T16:00:20.433Z,101747.80
2019-01-19T16:04:08.916Z,101752.30
2019-01-19T16:08:01.804Z,101756.80
2019-01-19T16:11:30.799Z,101753.92
2019-01-19T16:15:15.284Z,101751.35
2019-01-19T16:18:50.138Z,101747.24
2019-01-19T16:22:22.303Z,101750.45
2019-01-19T16:25:59.609Z,101745.08
2019-01-19T16:29:43.718Z,101748.51
2019-01-19T16:33:26.100Z,101746.16
2019-01-19T16:36:57.291Z,101745.10
2019-01-19T16:40:44.466Z,101748.58
2019-01-19T16:44:50.775Z,101752.94
2019-01-19T16:48:23.004Z,101751.52
2019-01-19T16:51:53.286Z,101748.67
2019-01-19T16:55:28.219Z,101741.91
2019-01-19T16:59:01.048Z,101746.16
2019-01-19T17:02:33.762Z,101747.46
2019-01-19T17:06:19.059Z,101749.30
2019-01-19T17:09:44.646Z,101754.97
2019-01-19T17:13:27.465Z,101750.97
2019-01-19T17:16:58.827Z,101753.51
2019-01-19T17:20:49.437Z,101756.23
2019-01-19T17:24:34.420Z,101751.38
2019-01-19T17:28:16.312Z,101748.98
2019-01-19T17:31:50.871Z,101754.53
2019-01-19T17:35:39.043Z,101757.22
2019-01-19T17:39:16.783Z,101750.16
2019-01-19T17:42:56.883Z,101755.23
2019-01-19T17:46:34.908Z,101742.54
2019-01-19T17:50:24.221Z,101745.67
2019-01-19T17:54:00.032Z,101745.23
2019-01-19T17:57:18.273Z,101748.66
2019-01-19T18:01:18.526Z,101745.96
2019-01-19T18:04:41.270Z,101745.44
2019-01-19T18:08:10.224Z,101751.27
2019-01-19T18:11:52.044Z,101754.20
2019-01-19T18:15:38.978Z,101749.80
2019-01-19T18:19:17.278Z,101758.48
2019-01-19T18:22:52.547Z,101759.80
2019-01-19T18:26:53.023Z,101757.06
2019-01-19T18:30:24.442Z,101758.13
2019-01-19T18:33:54.161Z,101765.95
2019-01-19T18:38:03.723Z,101761.47
2019-01-19T18:41:39.746Z,101765.31
2019-01-19T18:45:10.178Z,101759.47
2019-01-19T18:48:43.484Z,101756.81
2019-01-19T18:52:22.468Z,101755.02
2019-01-19T18:56:05.657Z,101759.25
2019-01-19T18:59:51.253Z,101751.47
2019-01-19T19:03:11.971Z,101747.14
2019-01-19T19:07:06.461Z,101747.27
2019-01-19T19:10:54.456Z,101747.84
2019-01-19T19:14:29.190Z,101745.79
2019-01-19T19:17:48.376Z,101757.09
2019-01-19T19:21:46.220Z,101747.34
2019-01-19T19:25:15.994Z,101754.06
2019-01-19T19:28:48.085Z,101750.34
2019-01-19T19:32:03.228Z,101751.60
2019-01-19T19:35:33.445Z,101751.84
2019-01-19T19:39:21.913Z,101753.14
2019-01-19T19:43:22.374Z,101754.41
2019-01-19T19:47:04.649Z,101757.42
2019-01-19T19:50:52.107Z,101754.36
2019-01-19T19:54:06.563Z,101757.78
2019-01-19T19:57:13.197Z,101755.85
2019-01-19T20:00:17.374Z,101754.02
2019-01-19T20:03:21.363Z,101754.02
2019-01-19T20:06:25.774Z,101746.23
2019-01-19T20:09:29.985Z,101746.95
2019-01-19T20:12:35.553Z,101746.91
2019-01-19T20:15:39.522Z,101746.91
2019-01-19T20:18:43.585Z,101748.22
2019-01-19T20:21:47.644Z,101750.41
2019-01-19T20:24:52.786Z,101751.23
2019-01-19T20:27:58.248Z,101749.52
2019-01-19T20:31:02.156Z,101746.91
2019-01-19T20:34:06.156Z,101745.61
2019-01-19T20:37:10.198Z,101753.34
2019-01-19T20:40:14.193Z,101750.11
2019-01-19T20:43:18.066Z,101753.98
2019-01-19T20:46:21.983Z,101754.83
2019-01-19T20:49:29.695Z,101751.32
2019-01-19T20:52:33.845Z,101754.56
2019-01-19T20:55:37.888Z,101754.64
2019-01-19T20:58:41.884Z,101754.47
2019-01-19T21:01:45.863Z,101756.18
2019-01-19T21:04:49.851Z,101759.73
2019-01-19T21:07:54.329Z,101761.04
2019-01-19T21:10:58.414Z,101756.23
2019-01-19T21:14:02.368Z,101755.45
2019-01-19T21:17:07.021Z,101759.86
2019-01-19T21:20:11.931Z,101755.45
2019-01-19T21:23:15.807Z,101754.47
2019-01-19T21:26:20.167Z,101749.88
2019-01-19T21:29:24.196Z,101751.59
2019-01-19T21:32:28.387Z,101757.48
2019-01-19T21:35:32.419Z,101760.45
2019-01-19T21:38:36.438Z,101759.92
2019-01-19T21:41:40.694Z,101760.33
2019-01-19T21:44:44.651Z,101756.54
2019-01-19T21:47:48.685Z,101761.53
2019-01-19T21:50:53.854Z,101767.97
2019-01-19T21:53:57.855Z,101767.34
2019-01-19T21:57:01.800Z,101768.73
2019-01-19T22:00:09.362Z,101772.73
2019-01-19T22:03:13.493Z,101769.94
2019-01-19T22:06:17.485Z,101764.23
2019-01-19T22:09:21.427Z,101755.59
2019-01-19T22:12:25.352Z,101768.15
2019-01-19T22:15:29.305Z,101761.34
2019-01-19T22:18:34.871Z,101756.19
2019-01-19T22:21:38.933Z,101756.50
2019-01-19T22:24:42.799Z,101752.63
2019-01-19T22:27:48.297Z,101760.59
2019-01-19T22:30:52.264Z,101760.81
2019-01-19T22:33:56.275Z,101761.53
2019-01-19T22:37:00.306Z,101763.69
2019-01-19T22:40:05.313Z,101763.69
2019-01-19T22:43:12.104Z,101762.38
2019-01-19T22:46:16.071Z,101759.59
2019-01-19T22:49:20.121Z,101769.59
2019-01-19T22:52:24.107Z,101765.94
2019-01-19T22:55:28.031Z,101759.88
2019-01-19T22:58:31.916Z,101764.33
2019-01-19T23:01:39.853Z,101760.45
2019-01-19T23:04:44.450Z,101762.70
2019-01-19T23:07:49.309Z,101766.66
2019-01-19T23:10:53.247Z,101764.91
2019-01-19T23:13:57.265Z,101768.14
2019-01-19T23:17:01.281Z,101767.33
2019-01-19T23:20:05.967Z,101772.19
2019-01-19T23:23:09.985Z,101768.85
2019-01-19T23:26:14.194Z,101766.24
2019-01-19T23:29:18.178Z,101762.50
2019-01-19T23:32:22.140Z,101768.80
2019-01-19T23:35:28.910Z,101766.20
2019-01-19T23:38:32.913Z,101761.59
2019-01-19T23:41:36.938Z,101764.89
2019-01-19T23:44:40.954Z,101758.90
2019-01-19T23:47:44.902Z,101759.92
2019-01-19T23:50:48.834Z,101757.81
2019-01-19T23:53:52.770Z,101755.64
2019-01-19T23:56:58.276Z,101761.80
